Time;durP1;ratioP1;P1;durP2;ratioP2;P2;SDS_P1;SDS_P2;PMS_P1;PMS_P2;Temp;Humidity;BMP_temperature;BMP_pressure;BME280_temperature;BME280_humidity;BME280_pressure;Samples;Min_cycle;Max_cycle;Signal;HPM_P1;HPM_P2
2022/12/05 00:02:05;;;;;;;;;;;25.20;64.10;;;;;;5068801;28;20050;-67
2022/12/05 00:04:32;;;;;;;;;;;25.20;64.90;;;;;;5071357;28;19912;-66
2022/12/05 00:12:09;;;;;;;;;;;25.30;66.20;;;;;;5081654;28;19928;-65
2022/12/05 00:14:35;;;;;;;;;;;25.30;65.90;;;;;;5064039;28;19928;-65
2022/12/05 00:17:02;;;;;;;;;;;25.30;65.70;;;;;;5062642;28;19940;-65
2022/12/05 00:19:28;;;;;;;;;;;25.30;65.80;;;;;;5068966;28;19920;-66
2022/12/05 00:21:56;;;;;;;;;;;25.30;65.40;;;;;;5047915;28;19915;-66
2022/12/05 00:24:23;;;;;;;;;;;25.30;65.90;;;;;;5071011;28;20317;-66
2022/12/05 00:26:49;;;;;;;;;;;25.40;66.10;;;;;;5071756;28;19932;-66
2022/12/05 00:29:16;;;;;;;;;;;25.40;64.70;;;;;;5059800;28;20322;-66
2022/12/05 00:31:43;;;;;;;;;;;25.40;65.90;;;;;;5073616;28;20541;-66
2022/12/05 00:34:09;;;;;;;;;;;25.30;65.10;;;;;;5073385;28;19909;-66
2022/12/05 00:36:36;;;;;;;;;;;25.30;66.00;;;;;;5072723;28;19916;-65
2022/12/05 00:39:10;;;;;;;;;;;25.30;65.80;;;;;;5066354;28;19917;-65
2022/12/05 00:41:36;;;;;;;;;;;25.30;65.90;;;;;;5071927;28;20386;-67
2022/12/05 00:44:03;;;;;;;;;;;25.30;65.30;;;;;;5065777;28;19919;-68
2022/12/05 00:46:30;;;;;;;;;;;25.30;65.60;;;;;;5057016;28;19923;-68
2022/12/05 00:48:57;;;;;;;;;;;25.30;65.70;;;;;;5036544;28;19909;-67
2022/12/05 00:51:28;;;;;;;;;;;25.30;66.10;;;;;;5060882;28;19978;-66
2022/12/05 00:53:55;;;;;;;;;;;25.30;65.80;;;;;;5054806;28;19912;-65
2022/12/05 00:56:22;;;;;;;;;;;25.40;66.10;;;;;;5059714;28;19915;-66
2022/12/05 00:58:49;;;;;;;;;;;25.50;66.70;;;;;;5062937;28;20007;-65
2022/12/05 01:01:20;;;;;;;;;;;25.40;65.10;;;;;;5055283;28;19913;-65
2022/12/05 01:03:47;;;;;;;;;;;25.40;65.80;;;;;;5066691;28;19916;-65
2022/12/05 01:06:14;;;;;;;;;;;25.40;64.60;;;;;;5071527;28;19917;-65
2022/12/05 01:08:40;;;;;;;;;;;25.40;65.40;;;;;;5070945;28;19956;-65
2022/12/05 01:11:07;;;;;;;;;;;25.40;65.60;;;;;;5069888;28;20271;-66
2022/12/05 01:13:34;;;;;;;;;;;25.40;65.70;;;;;;5061928;28;19927;-65
2022/12/05 01:16:01;;;;;;;;;;;25.50;66.00;;;;;;5074456;28;19916;-68
2022/12/05 01:18:27;;;;;;;;;;;25.50;64.80;;;;;;5071028;28;19912;-66
2022/12/05 01:20:54;;;;;;;;;;;25.50;65.50;;;;;;5074612;28;19917;-66
2022/12/05 01:23:20;;;;;;;;;;;25.50;63.90;;;;;;5072833;28;19963;-66
2022/12/05 01:25:48;;;;;;;;;;;25.50;64.80;;;;;;5071153;28;19958;-67
2022/12/05 01:28:15;;;;;;;;;;;25.50;64.90;;;;;;5063248;28;19966;-67
2022/12/05 01:30:43;;;;;;;;;;;25.50;65.90;;;;;;5065374;28;19920;-68
2022/12/05 01:33:09;;;;;;;;;;;25.50;66.30;;;;;;5068237;28;19919;-67
2022/12/05 01:35:36;;;;;;;;;;;25.60;65.40;;;;;;5070756;28;19912;-66
2022/12/05 01:38:03;;;;;;;;;;;25.60;65.40;;;;;;5073677;28;19928;-67
2022/12/05 01:40:30;;;;;;;;;;;25.70;65.90;;;;;;5069599;28;20006;-67
2022/12/05 01:54:21;;;;;;;;;;;25.80;66.70;;;;;;5072360;28;20298;-68
2022/12/05 01:56:49;;;;;;;;;;;25.80;66.70;;;;;;5075297;28;20366;-66
2022/12/05 01:59:16;;;;;;;;;;;25.80;66.50;;;;;;5076072;28;19915;-67
2022/12/05 02:01:42;;;;;;;;;;;25.90;66.80;;;;;;5075388;28;20321;-67
2022/12/05 02:04:09;;;;;;;;;;;25.90;64.40;;;;;;5083887;28;19909;-67
2022/12/05 02:06:35;;;;;;;;;;;25.90;65.10;;;;;;5073561;28;19996;-67
2022/12/05 02:09:02;;;;;;;;;;;25.90;65.40;;;;;;5073407;28;19920;-67
2022/12/05 02:11:29;;;;;;;;;;;25.90;66.00;;;;;;5073295;28;20271;-67
2022/12/05 02:13:56;;;;;;;;;;;26.00;65.80;;;;;;5073652;28;19991;-67
2022/12/05 02:16:31;;;;;;;;;;;25.90;65.50;;;;;;5073553;28;19908;-67
2022/12/05 02:19:04;;;;;;;;;;;25.90;65.50;;;;;;5072297;28;19909;-67
2022/12/05 02:21:30;;;;;;;;;;;25.90;65.20;;;;;;5068466;28;19909;-67
2022/12/05 02:24:03;;;;;;;;;;;26.00;64.80;;;;;;5074484;28;19908;-67
2022/12/05 02:26:52;;;;;;;;;;;26.00;64.80;;;;;;5076933;28;20011;-67
2022/12/05 02:29:34;;;;;;;;;;;26.00;64.60;;;;;;5035408;28;19958;-67
2022/12/05 02:32:04;;;;;;;;;;;26.00;63.80;;;;;;5072940;28;20294;-67
2022/12/05 02:34:35;;;;;;;;;;;26.10;65.40;;;;;;5073006;28;20024;-67
2022/12/05 02:37:08;;;;;;;;;;;26.10;65.30;;;;;;5073018;28;19912;-67
2022/12/05 02:39:36;;;;;;;;;;;26.10;65.80;;;;;;5062886;28;19930;-67
2022/12/05 02:42:03;;;;;;;;;;;26.10;64.70;;;;;;5074936;28;19962;-67
2022/12/05 02:44:35;;;;;;;;;;;26.10;64.10;;;;;;5086968;28;19908;-67
2022/12/05 02:47:02;;;;;;;;;;;26.10;64.90;;;;;;5067804;28;19912;-67
2022/12/05 02:49:30;;;;;;;;;;;26.10;65.30;;;;;;5074039;28;19944;-67
2022/12/05 02:51:57;;;;;;;;;;;26.10;65.10;;;;;;5062329;28;19916;-67
2022/12/05 02:54:25;;;;;;;;;;;26.20;64.30;;;;;;5079211;28;19982;-66
2022/12/05 02:56:51;;;;;;;;;;;26.20;64.20;;;;;;5074517;28;19987;-67
2022/12/05 02:59:18;;;;;;;;;;;26.20;64.60;;;;;;5089458;28;20295;-67
2022/12/05 03:01:46;;;;;;;;;;;26.30;64.60;;;;;;5056961;28;19908;-67
2022/12/05 03:04:13;;;;;;;;;;;26.30;64.20;;;;;;5072393;28;20303;-67
2022/12/05 03:06:40;;;;;;;;;;;26.30;64.90;;;;;;5068442;28;19954;-66
2022/12/05 03:09:15;;;;;;;;;;;26.30;63.40;;;;;;5063525;28;20362;-66
2022/12/05 03:11:44;;;;;;;;;;;26.30;63.60;;;;;;5076298;28;19919;-66
2022/12/05 03:14:12;;;;;;;;;;;26.30;63.90;;;;;;5062831;28;19915;-66
2022/12/05 03:16:43;;;;;;;;;;;26.30;62.20;;;;;;5073522;28;19919;-66
2022/12/05 03:19:28;;;;;;;;;;;26.40;62.40;;;;;;5062085;28;19908;-66
2022/12/05 03:22:01;;;;;;;;;;;26.40;63.40;;;;;;5076142;28;19943;-66
2022/12/05 03:24:28;;;;;;;;;;;26.40;63.30;;;;;;5063756;28;20371;-66
2022/12/05 03:26:55;;;;;;;;;;;26.40;62.40;;;;;;5077058;28;19908;-66
2022/12/05 03:29:39;;;;;;;;;;;26.30;62.60;;;;;;5084582;22;19928;-70
2022/12/05 03:32:24;;;;;;;;;;;26.40;62.80;;;;;;5092326;28;19933;-69
2022/12/05 03:35:06;;;;;;;;;;;26.40;62.60;;;;;;5074596;28;20307;-70
2022/12/05 03:37:39;;;;;;;;;;;26.40;63.40;;;;;;5092259;28;19908;-70
2022/12/05 03:40:08;;;;;;;;;;;26.30;63.10;;;;;;5092182;28;19914;-70
2022/12/05 03:42:35;;;;;;;;;;;26.30;63.40;;;;;;5091998;28;19920;-70
2022/12/05 03:45:10;;;;;;;;;;;26.30;63.00;;;;;;5074452;28;20354;-69
2022/12/05 03:47:49;;;;;;;;;;;26.30;63.20;;;;;;5074213;28;19944;-70
2022/12/05 03:50:18;;;;;;;;;;;26.20;63.60;;;;;;5066619;28;19955;-69
2022/12/05 03:52:46;;;;;;;;;;;26.30;63.60;;;;;;5060165;28;20278;-70
2022/12/05 03:55:13;;;;;;;;;;;26.20;63.80;;;;;;5077720;28;20265;-70
2022/12/05 03:57:45;;;;;;;;;;;26.30;63.70;;;;;;5074131;28;19908;-70
2022/12/05 04:00:17;;;;;;;;;;;26.30;63.70;;;;;;5074386;28;19920;-70
2022/12/05 04:02:50;;;;;;;;;;;26.30;64.20;;;;;;5091894;28;19908;-70
2022/12/05 04:05:26;;;;;;;;;;;26.30;63.90;;;;;;5091939;28;19908;-70
2022/12/05 04:07:55;;;;;;;;;;;26.30;64.10;;;;;;5074049;28;19962;-70
2022/12/05 04:10:25;;;;;;;;;;;26.30;63.20;;;;;;5091791;28;19923;-70
2022/12/05 04:12:53;;;;;;;;;;;26.30;64.10;;;;;;5073976;28;19908;-70
2022/12/05 04:15:24;;;;;;;;;;;26.30;63.70;;;;;;5073479;28;19908;-70
2022/12/05 04:17:57;;;;;;;;;;;26.30;63.50;;;;;;5074050;28;19908;-70
2022/12/05 04:23:12;;;;;;;;;;;26.20;63.90;;;;;;5091891;28;20015;-70
2022/12/05 04:26:01;;;;;;;;;;;26.20;64.00;;;;;;5092073;28;19912;-69
2022/12/05 04:28:28;;;;;;;;;;;26.20;63.50;;;;;;5080943;28;19938;-70
2022/12/05 04:30:59;;;;;;;;;;;26.20;63.70;;;;;;5063375;28;19921;-71
2022/12/05 04:33:29;;;;;;;;;;;26.20;64.30;;;;;;5073968;28;20366;-71
2022/12/05 04:36:21;;;;;;;;;;;26.10;63.50;;;;;;5073686;28;20251;-70
2022/12/05 04:38:48;;;;;;;;;;;26.10;63.60;;;;;;5087726;28;20373;-71
2022/12/05 04:41:20;;;;;;;;;;;26.10;63.30;;;;;;5092379;28;20325;-71
2022/12/05 04:43:47;;;;;;;;;;;26.00;63.70;;;;;;5077442;28;19908;-71
2022/12/05 04:46:14;;;;;;;;;;;26.00;64.50;;;;;;5058158;28;19916;-70
2022/12/05 04:48:40;;;;;;;;;;;26.00;64.30;;;;;;5061845;28;19920;-71
2022/12/05 04:51:07;;;;;;;;;;;26.00;64.60;;;;;;5076939;28;19973;-71
2022/12/05 04:53:34;;;;;;;;;;;26.10;65.00;;;;;;5095446;28;19935;-71
2022/12/05 04:56:00;;;;;;;;;;;26.10;65.00;;;;;;5095395;28;19923;-70
2022/12/05 04:58:27;;;;;;;;;;;26.00;65.40;;;;;;5077271;28;19999;-71
2022/12/05 05:00:53;;;;;;;;;;;25.80;65.00;;;;;;5095360;28;19908;-70
2022/12/05 05:03:40;;;;;;;;;;;25.80;65.30;;;;;;5094737;28;19912;-70
2022/12/05 05:06:07;;;;;;;;;;;25.70;65.10;;;;;;5094682;28;20432;-70
2022/12/05 05:08:33;;;;;;;;;;;25.70;64.90;;;;;;5076845;28;20285;-71
2022/12/05 05:11:10;;;;;;;;;;;25.60;65.30;;;;;;5094963;28;19916;-71
2022/12/05 05:13:37;;;;;;;;;;;25.60;65.10;;;;;;5094756;28;19915;-71
2022/12/05 05:16:03;;;;;;;;;;;25.50;64.90;;;;;;5094331;28;19908;-71
2022/12/05 05:18:30;;;;;;;;;;;25.40;65.50;;;;;;5094276;28;19908;-71
2022/12/05 05:20:57;;;;;;;;;;;25.40;65.80;;;;;;5094639;28;19947;-70
2022/12/05 05:23:23;;;;;;;;;;;25.30;65.60;;;;;;5094015;28;19944;-71
2022/12/05 05:25:54;;;;;;;;;;;25.30;65.50;;;;;;5094146;28;20401;-70
2022/12/05 05:28:21;;;;;;;;;;;25.10;68.50;;;;;;5094220;28;19969;-71
2022/12/05 05:30:47;;;;;;;;;;;25.00;73.30;;;;;;5094473;28;19928;-71
2022/12/05 05:33:14;;;;;;;;;;;24.70;72.80;;;;;;5094693;28;19908;-71
2022/12/05 05:35:41;;;;;;;;;;;24.60;74.90;;;;;;5094375;28;20401;-71
2022/12/05 05:38:07;;;;;;;;;;;24.60;75.10;;;;;;5094814;28;20000;-71
2022/12/05 05:40:35;;;;;;;;;;;24.60;76.80;;;;;;5083882;28;19908;-71
2022/12/05 05:43:02;;;;;;;;;;;24.70;77.50;;;;;;5094427;28;19912;-71
2022/12/05 05:45:28;;;;;;;;;;;24.50;76.30;;;;;;5094261;28;19915;-71
2022/12/05 05:47:55;;;;;;;;;;;24.50;75.80;;;;;;5093916;28;19951;-71
2022/12/05 05:50:21;;;;;;;;;;;24.40;72.50;;;;;;5094028;28;20344;-71
2022/12/05 05:52:48;;;;;;;;;;;24.50;72.00;;;;;;5094126;28;19912;-71
2022/12/05 05:55:15;;;;;;;;;;;24.70;69.90;;;;;;5094169;28;19987;-71
2022/12/05 05:57:41;;;;;;;;;;;24.80;66.70;;;;;;5094001;28;19920;-72
2022/12/05 06:00:08;;;;;;;;;;;25.00;68.10;;;;;;5094020;28;20007;-71
2022/12/05 06:02:35;;;;;;;;;;;25.20;67.20;;;;;;5094117;28;19908;-72
2022/12/05 06:05:01;;;;;;;;;;;25.30;66.40;;;;;;5093944;28;20034;-72
2022/12/05 06:07:28;;;;;;;;;;;25.30;65.40;;;;;;5094010;28;19923;-71
2022/12/05 06:09:55;;;;;;;;;;;25.30;63.40;;;;;;5093348;28;19917;-72
2022/12/05 06:12:21;;;;;;;;;;;25.30;60.80;;;;;;5082007;28;20290;-72
2022/12/05 06:14:48;;;;;;;;;;;25.30;61.00;;;;;;5073249;28;19913;-72
2022/12/05 06:17:15;;;;;;;;;;;25.30;60.60;;;;;;5072697;28;19950;-72
2022/12/05 06:19:41;;;;;;;;;;;25.30;61.10;;;;;;5055334;28;19913;-72
2022/12/05 06:22:08;;;;;;;;;;;25.30;62.80;;;;;;5072810;28;20343;-71
2022/12/05 06:24:35;;;;;;;;;;;25.30;64.40;;;;;;5072611;28;19978;-71
2022/12/05 06:27:01;;;;;;;;;;;25.30;65.50;;;;;;5072582;28;19909;-72
2022/12/05 06:29:28;;;;;;;;;;;25.20;66.40;;;;;;5072455;28;19980;-72
2022/12/05 06:31:54;;;;;;;;;;;25.20;66.90;;;;;;5072393;28;19930;-72
2022/12/05 06:34:21;;;;;;;;;;;25.20;67.50;;;;;;5071622;28;19962;-69
2022/12/05 06:36:48;;;;;;;;;;;25.20;67.10;;;;;;5071697;28;20320;-70
2022/12/05 06:39:14;;;;;;;;;;;25.20;67.20;;;;;;5072975;28;19966;-71
2022/12/05 06:41:41;;;;;;;;;;;25.20;67.10;;;;;;5072071;28;19913;-71
2022/12/05 06:44:08;;;;;;;;;;;25.20;67.30;;;;;;5054532;28;19925;-71
2022/12/05 06:46:35;;;;;;;;;;;25.20;66.90;;;;;;5054851;28;19908;-71
2022/12/05 06:49:01;;;;;;;;;;;25.20;67.30;;;;;;5065605;28;19908;-71
2022/12/05 06:51:28;;;;;;;;;;;25.20;67.10;;;;;;5074595;28;19920;-71
2022/12/05 06:53:58;;;;;;;;;;;25.10;66.60;;;;;;5071389;28;20225;-71
2022/12/05 06:56:24;;;;;;;;;;;25.10;65.90;;;;;;5054453;28;19912;-71
2022/12/05 06:58:52;;;;;;;;;;;25.00;65.30;;;;;;5054647;28;19919;-71
2022/12/05 07:01:37;;;;;;;;;;;25.00;65.70;;;;;;5054324;28;20355;-71
2022/12/05 07:04:04;;;;;;;;;;;25.00;65.60;;;;;;5071704;28;19953;-71
2022/12/05 07:06:32;;;;;;;;;;;25.00;66.00;;;;;;5070840;28;20345;-72
2022/12/05 07:08:58;;;;;;;;;;;25.00;65.90;;;;;;5054684;28;20310;-71
2022/12/05 07:11:25;;;;;;;;;;;25.00;66.40;;;;;;5072027;28;19920;-71
2022/12/05 07:13:52;;;;;;;;;;;24.90;66.60;;;;;;5072066;28;19924;-71
2022/12/05 07:16:18;;;;;;;;;;;24.90;66.90;;;;;;5071983;28;19915;-71
2022/12/05 07:18:45;;;;;;;;;;;24.90;67.30;;;;;;5072011;28;19908;-71
2022/12/05 07:21:13;;;;;;;;;;;24.80;67.10;;;;;;5071851;28;19915;-71
2022/12/05 07:23:40;;;;;;;;;;;24.90;67.00;;;;;;5071600;28;19909;-71
2022/12/05 07:26:07;;;;;;;;;;;24.80;66.90;;;;;;5071640;28;20286;-71
2022/12/05 07:28:33;;;;;;;;;;;24.80;66.60;;;;;;5068435;28;20283;-70
2022/12/05 07:31:04;;;;;;;;;;;24.80;66.00;;;;;;5053954;28;19963;-71
2022/12/05 07:33:30;;;;;;;;;;;24.80;66.00;;;;;;5071862;28;20366;-71
2022/12/05 07:36:00;;;;;;;;;;;24.80;66.10;;;;;;5071569;28;19915;-71
2022/12/05 07:38:27;;;;;;;;;;;24.80;66.20;;;;;;5071456;28;19912;-71
2022/12/05 07:40:54;;;;;;;;;;;24.80;65.70;;;;;;5071670;28;19919;-71
2022/12/05 07:43:20;;;;;;;;;;;24.80;65.70;;;;;;5071912;28;19913;-71
2022/12/05 07:45:47;;;;;;;;;;;24.80;65.40;;;;;;5071374;28;20006;-71
2022/12/05 07:48:14;;;;;;;;;;;24.80;65.50;;;;;;5064903;28;19912;-71
2022/12/05 07:50:40;;;;;;;;;;;24.80;65.70;;;;;;5080772;28;20290;-71
2022/12/05 07:53:07;;;;;;;;;;;24.80;65.80;;;;;;5071705;28;20460;-71
2022/12/05 07:55:33;;;;;;;;;;;24.80;65.90;;;;;;5071769;28;19912;-71
2022/12/05 07:58:00;;;;;;;;;;;24.80;66.10;;;;;;5071529;28;19909;-71
2022/12/05 08:00:27;;;;;;;;;;;24.80;66.30;;;;;;5053967;28;19984;-71
2022/12/05 08:02:53;;;;;;;;;;;24.80;66.50;;;;;;5071795;28;19908;-71
2022/12/05 08:05:20;;;;;;;;;;;24.80;66.90;;;;;;5071018;28;19909;-71
2022/12/05 08:07:46;;;;;;;;;;;24.70;67.30;;;;;;5070273;28;19932;-73
2022/12/05 08:10:13;;;;;;;;;;;24.70;67.70;;;;;;5071426;28;19917;-71
2022/12/05 08:12:40;;;;;;;;;;;24.70;66.90;;;;;;5071213;28;20321;-73
2022/12/05 08:15:07;;;;;;;;;;;24.70;67.50;;;;;;5071500;28;19940;-72
2022/12/05 08:17:33;;;;;;;;;;;24.70;68.60;;;;;;5073804;28;19995;-73
2022/12/05 08:20:01;;;;;;;;;;;24.50;68.80;;;;;;5074647;28;19912;-73
2022/12/05 08:22:28;;;;;;;;;;;24.50;68.70;;;;;;5070759;28;20007;-73
2022/12/05 08:24:54;;;;;;;;;;;24.50;68.40;;;;;;5069683;28;19966;-72
2022/12/05 08:27:21;;;;;;;;;;;24.50;69.40;;;;;;5071563;28;20306;-72
2022/12/05 08:29:47;;;;;;;;;;;24.50;68.50;;;;;;5072763;28;19928;-72
2022/12/05 08:32:14;;;;;;;;;;;24.40;68.90;;;;;;5075278;28;20009;-73
2022/12/05 08:34:41;;;;;;;;;;;24.40;68.70;;;;;;5075156;28;19928;-72
2022/12/05 08:37:07;;;;;;;;;;;24.40;68.70;;;;;;5074669;28;19916;-72
2022/12/05 08:39:35;;;;;;;;;;;24.40;68.20;;;;;;5074875;28;19946;-72
2022/12/05 08:42:02;;;;;;;;;;;24.40;68.30;;;;;;5074898;28;19911;-72
2022/12/05 08:44:28;;;;;;;;;;;24.30;68.80;;;;;;5074837;28;19908;-73
2022/12/05 08:46:55;;;;;;;;;;;24.20;69.10;;;;;;5074750;28;19904;-73
2022/12/05 08:49:22;;;;;;;;;;;24.20;69.20;;;;;;5089060;28;19916;-72
2022/12/05 08:51:48;;;;;;;;;;;24.20;69.70;;;;;;5067691;28;19916;-72
2022/12/05 08:54:15;;;;;;;;;;;24.10;69.70;;;;;;5085199;28;19909;-71
2022/12/05 08:56:42;;;;;;;;;;;24.00;69.30;;;;;;5093629;28;19908;-72
2022/12/05 08:59:08;;;;;;;;;;;24.00;69.70;;;;;;5095371;28;19915;-72
2022/12/05 09:01:37;;;;;;;;;;;23.90;69.90;;;;;;5086779;28;20634;-73
2022/12/05 09:04:04;;;;;;;;;;;23.90;70.30;;;;;;5054767;28;20011;-72
2022/12/05 09:06:31;;;;;;;;;;;23.90;70.10;;;;;;5087384;28;19923;-74
2022/12/05 09:08:58;;;;;;;;;;;23.80;70.30;;;;;;5078077;28;20012;-71
2022/12/05 09:11:30;;;;;;;;;;;23.80;70.60;;;;;;5071316;28;19929;-73
2022/12/05 09:13:56;;;;;;;;;;;23.80;71.20;;;;;;5067395;28;20302;-73
2022/12/05 09:16:24;;;;;;;;;;;23.80;71.60;;;;;;5081697;28;19927;-74
2022/12/05 09:18:50;;;;;;;;;;;23.80;71.80;;;;;;5061388;28;20312;-73
2022/12/05 09:21:18;;;;;;;;;;;23.80;72.40;;;;;;5060509;28;19916;-77
2022/12/05 09:23:44;;;;;;;;;;;23.80;72.40;;;;;;5090051;28;20041;-76
2022/12/05 09:26:14;;;;;;;;;;;23.80;72.50;;;;;;5082651;28;19955;-76
2022/12/05 09:28:41;;;;;;;;;;;23.80;72.50;;;;;;5085543;28;19939;-73
2022/12/05 09:31:09;;;;;;;;;;;23.80;72.80;;;;;;5074169;28;19960;-72
2022/12/05 09:33:36;;;;;;;;;;;23.80;73.20;;;;;;5076761;28;20357;-76
2022/12/05 09:36:03;;;;;;;;;;;23.80;73.30;;;;;;5091823;28;19916;-74
2022/12/05 09:38:30;;;;;;;;;;;23.80;73.30;;;;;;5069851;28;20125;-75
2022/12/05 09:41:20;;;;;;;;;;;23.80;73.60;;;;;;5075387;28;19916;-75
2022/12/05 09:43:58;;;;;;;;;;;23.70;73.70;;;;;;5064959;28;19919;-75
2022/12/05 09:46:28;;;;;;;;;;;23.70;74.60;;;;;;5045199;28;19919;-73
2022/12/05 09:48:54;;;;;;;;;;;23.60;75.00;;;;;;5066085;28;20001;-74
2022/12/05 09:51:21;;;;;;;;;;;23.50;77.00;;;;;;5061413;28;19943;-69
2022/12/05 09:53:48;;;;;;;;;;;23.00;85.10;;;;;;5082158;28;19916;-68
2022/12/05 09:56:27;;;;;;;;;;;22.50;89.50;;;;;;5071662;28;19912;-68
2022/12/05 09:58:54;;;;;;;;;;;22.20;91.90;;;;;;5066386;28;19920;-69
2022/12/05 10:01:27;;;;;;;;;;;21.90;92.70;;;;;;5061284;28;19913;-69
2022/12/05 10:04:01;;;;;;;;;;;21.80;92.70;;;;;;5091609;28;20378;-69
2022/12/05 10:06:54;;;;;;;;;;;21.80;93.60;;;;;;5073218;28;19919;-69
2022/12/05 10:09:28;;;;;;;;;;;21.70;93.90;;;;;;5087390;28;19973;-70
2022/12/05 10:11:58;;;;;;;;;;;21.70;94.40;;;;;;5073936;28;19950;-70
2022/12/05 10:14:40;;;;;;;;;;;21.50;94.20;;;;;;5072736;28;20262;-70
2022/12/05 10:17:20;;;;;;;;;;;21.50;94.60;;;;;;5072560;28;20010;-70
2022/12/05 10:19:47;;;;;;;;;;;21.50;94.80;;;;;;5091364;28;19916;-70
2022/12/05 10:22:18;;;;;;;;;;;21.50;95.10;;;;;;5058126;28;19919;-70
2022/12/05 10:24:55;;;;;;;;;;;21.50;95.10;;;;;;5080439;28;19916;-70
2022/12/05 10:27:32;;;;;;;;;;;21.40;95.20;;;;;;5054946;28;20297;-70
2022/12/05 10:30:01;;;;;;;;;;;21.40;95.30;;;;;;5067326;28;19974;-70
2022/12/05 10:32:39;;;;;;;;;;;21.40;95.50;;;;;;5072298;28;19920;-71
2022/12/05 10:35:14;;;;;;;;;;;21.40;95.30;;;;;;5055997;28;19951;-69
2022/12/05 10:37:42;;;;;;;;;;;21.40;95.70;;;;;;5090335;28;19912;-71
2022/12/05 10:40:11;;;;;;;;;;;21.40;95.80;;;;;;5069649;28;19963;-68
2022/12/05 10:42:37;;;;;;;;;;;21.50;95.80;;;;;;5090692;28;19938;-68
2022/12/05 10:45:18;;;;;;;;;;;21.50;96.20;;;;;;5090600;28;19912;-68
2022/12/05 10:47:45;;;;;;;;;;;21.60;95.90;;;;;;5088621;28;20042;-68
2022/12/05 10:50:23;;;;;;;;;;;21.50;96.10;;;;;;5060226;28;19931;-68
2022/12/05 10:52:51;;;;;;;;;;;21.40;96.00;;;;;;5084869;28;19912;-68
2022/12/05 10:55:20;;;;;;;;;;;21.30;96.00;;;;;;5090674;28;20011;-67
2022/12/05 10:57:51;;;;;;;;;;;21.20;96.00;;;;;;5089045;28;19908;-68
2022/12/05 11:00:21;;;;;;;;;;;21.00;96.00;;;;;;5062766;28;20472;-70
2022/12/05 11:02:48;;;;;;;;;;;20.80;95.80;;;;;;5090055;28;19923;-70
2022/12/05 11:05:15;;;;;;;;;;;20.70;96.20;;;;;;5077587;28;19909;-69
2022/12/05 11:07:46;;;;;;;;;;;20.70;96.20;;;;;;5074151;28;20003;-69
2022/12/05 11:10:27;;;;;;;;;;;20.70;96.40;;;;;;5077658;28;19916;-69
2022/12/05 11:12:55;;;;;;;;;;;20.70;96.30;;;;;;5084508;28;19959;-70
2022/12/05 11:15:24;;;;;;;;;;;20.50;96.30;;;;;;5072202;28;20385;-71
2022/12/05 11:17:51;;;;;;;;;;;20.20;95.90;;;;;;5083028;28;19945;-70
2022/12/05 11:20:18;;;;;;;;;;;20.10;96.00;;;;;;5059762;28;20438;-70
2022/12/05 11:22:49;;;;;;;;;;;20.00;95.60;;;;;;5092145;28;19908;-71
2022/12/05 11:25:28;;;;;;;;;;;19.90;95.90;;;;;;5087362;28;19912;-71
2022/12/05 11:27:55;;;;;;;;;;;19.90;95.80;;;;;;5092097;28;19922;-71
2022/12/05 11:30:23;;;;;;;;;;;19.90;96.00;;;;;;5069641;28;19924;-71
2022/12/05 11:32:50;;;;;;;;;;;19.80;95.70;;;;;;5092269;28;20759;-72
2022/12/05 11:35:26;;;;;;;;;;;19.70;95.70;;;;;;5083036;28;20023;-72
2022/12/05 11:37:52;;;;;;;;;;;19.70;95.70;;;;;;5049527;28;19909;-74
2022/12/05 11:40:22;;;;;;;;;;;19.70;95.50;;;;;;5085984;28;19913;-72
2022/12/05 11:42:55;;;;;;;;;;;19.70;95.40;;;;;;5092232;28;19959;-72
2022/12/05 11:45:27;;;;;;;;;;;19.70;95.20;;;;;;5083329;28;19916;-72
2022/12/05 11:48:09;;;;;;;;;;;19.70;95.30;;;;;;5062705;28;19958;-74
2022/12/05 11:50:54;;;;;;;;;;;19.70;94.80;;;;;;5092272;28;19952;-76
2022/12/05 11:53:23;;;;;;;;;;;19.70;95.10;;;;;;5097589;28;20097;-74
2022/12/05 11:55:51;;;;;;;;;;;19.70;95.20;;;;;;5093999;28;19912;-75
2022/12/05 11:58:35;;;;;;;;;;;19.70;95.30;;;;;;5081008;28;20316;-75
2022/12/05 12:01:22;;;;;;;;;;;19.70;95.40;;;;;;5075382;28;19957;-75
2022/12/05 12:03:57;;;;;;;;;;;19.80;95.60;;;;;;5075837;28;19987;-76
2022/12/05 12:06:33;;;;;;;;;;;19.70;95.40;;;;;;5077791;28;21372;-76
2022/12/05 12:08:59;;;;;;;;;;;19.70;95.50;;;;;;5060801;28;19987;-75
2022/12/05 12:11:31;;;;;;;;;;;19.70;95.50;;;;;;5077487;28;19917;-76
2022/12/05 12:14:05;;;;;;;;;;;19.80;95.40;;;;;;5057522;28;20003;-76
2022/12/05 12:16:34;;;;;;;;;;;19.80;95.60;;;;;;5078781;28;19909;-75
2022/12/05 12:19:10;;;;;;;;;;;19.80;95.60;;;;;;5075366;28;19951;-76
2022/12/05 12:21:41;;;;;;;;;;;19.90;95.50;;;;;;5077410;28;19916;-76
2022/12/05 12:24:25;;;;;;;;;;;19.80;95.40;;;;;;5059881;28;19913;-76
2022/12/05 12:26:52;;;;;;;;;;;19.90;95.30;;;;;;5078373;28;20437;-75
2022/12/05 12:29:29;;;;;;;;;;;19.80;95.20;;;;;;5077885;28;19920;-76
2022/12/05 12:31:56;;;;;;;;;;;19.80;95.40;;;;;;5059848;28;19912;-76
2022/12/05 12:34:41;;;;;;;;;;;19.90;95.20;;;;;;5078116;28;19909;-77
2022/12/05 12:37:13;;;;;;;;;;;19.80;94.90;;;;;;5078279;28;19919;-78
2022/12/05 12:39:58;;;;;;;;;;;19.70;94.60;;;;;;5060214;28;19993;-76
2022/12/05 12:42:28;;;;;;;;;;;19.70;94.70;;;;;;5074559;28;19955;-76
2022/12/05 12:45:05;;;;;;;;;;;19.60;94.60;;;;;;5060207;28;19913;-76
2022/12/05 12:47:38;;;;;;;;;;;19.80;94.70;;;;;;5078101;28;19931;-76
2022/12/05 12:50:05;;;;;;;;;;;19.60;94.10;;;;;;5077763;28;19970;-76
2022/12/05 12:52:50;;;;;;;;;;;19.50;94.20;;;;;;5088527;28;19919;-75
2022/12/05 12:55:20;;;;;;;;;;;19.70;94.60;;;;;;5072243;28;19952;-76
2022/12/05 12:58:04;;;;;;;;;;;19.50;93.70;;;;;;5086015;28;19908;-76
2022/12/05 13:00:50;;;;;;;;;;;19.50;93.70;;;;;;5067770;28;20302;-76
2022/12/05 13:03:17;;;;;;;;;;;19.50;93.90;;;;;;5048868;28;20291;-76
2022/12/05 13:05:46;;;;;;;;;;;19.60;93.80;;;;;;5094939;28;19912;-76
2022/12/05 13:08:12;;;;;;;;;;;19.60;93.60;;;;;;5063569;28;20294;-78
2022/12/05 13:10:41;;;;;;;;;;;19.50;93.20;;;;;;5087063;28;19920;-76
2022/12/05 13:13:07;;;;;;;;;;;19.60;93.70;;;;;;5062896;28;20282;-77
2022/12/05 13:15:36;;;;;;;;;;;19.60;93.80;;;;;;5085555;28;20011;-76
2022/12/05 13:18:02;;;;;;;;;;;19.60;93.70;;;;;;5076740;28;20002;-76
2022/12/05 13:20:30;;;;;;;;;;;19.70;93.70;;;;;;5089287;28;19912;-76
2022/12/05 13:22:56;;;;;;;;;;;19.70;93.30;;;;;;5067368;28;19912;-76
2022/12/05 13:25:24;;;;;;;;;;;19.60;93.00;;;;;;5071660;28;20018;-76
2022/12/05 13:27:57;;;;;;;;;;;19.70;93.40;;;;;;5076844;28;19908;-77
2022/12/05 13:30:26;;;;;;;;;;;19.60;93.10;;;;;;5092760;28;20002;-76
2022/12/05 13:32:57;;;;;;;;;;;19.70;93.50;;;;;;5076995;28;19915;-76
2022/12/05 13:44:11;;;;;;;;;;;19.70;92.90;;;;;;5079193;28;19973;-76
2022/12/05 13:46:38;;;;;;;;;;;19.70;93.20;;;;;;5094292;28;20025;-76
2022/12/05 13:49:13;;;;;;;;;;;19.80;93.10;;;;;;5065121;28;19943;-76
2022/12/05 13:51:41;;;;;;;;;;;19.70;93.20;;;;;;5067352;28;19920;-77
2022/12/05 13:54:12;;;;;;;;;;;19.70;92.80;;;;;;5065244;28;19999;-76
2022/12/05 13:56:49;;;;;;;;;;;19.70;92.70;;;;;;5073561;28;19915;-76
2022/12/05 13:59:33;;;;;;;;;;;19.70;92.40;;;;;;5094011;28;19925;-75
2022/12/05 14:02:00;;;;;;;;;;;19.70;92.80;;;;;;5075592;28;21408;-76
2022/12/05 14:04:59;;;;;;;;;;;19.70;92.70;;;;;;5068368;28;20006;-75
2022/12/05 14:07:41;;;;;;;;;;;19.60;91.30;;;;;;5049379;28;19918;-75
2022/12/05 14:10:09;;;;;;;;;;;19.50;91.40;;;;;;5092299;28;19912;-73
2022/12/05 14:12:48;;;;;;;;;;;19.40;91.20;;;;;;5075336;28;20290;-75
2022/12/05 14:15:23;;;;;;;;;;;19.40;91.90;;;;;;5089344;28;19954;-75
2022/12/05 14:17:50;;;;;;;;;;;19.30;91.20;;;;;;5089366;28;19919;-75
2022/12/05 14:20:22;;;;;;;;;;;19.40;91.20;;;;;;5075610;28;20053;-75
2022/12/05 14:22:49;;;;;;;;;;;19.30;91.20;;;;;;5072276;28;20429;-75
2022/12/05 14:25:24;;;;;;;;;;;19.40;91.40;;;;;;5093257;28;20015;-75
2022/12/05 14:27:54;;;;;;;;;;;19.40;91.40;;;;;;5093446;28;19912;-75
2022/12/05 14:30:25;;;;;;;;;;;19.40;91.00;;;;;;5088786;28;20259;-75
2022/12/05 14:32:52;;;;;;;;;;;19.40;91.20;;;;;;5073756;28;19912;-74
2022/12/05 14:35:25;;;;;;;;;;;19.40;91.10;;;;;;5076084;28;20427;-74
2022/12/05 14:37:51;;;;;;;;;;;19.30;90.80;;;;;;5093510;28;20003;-74
2022/12/05 14:40:18;;;;;;;;;;;19.30;90.80;;;;;;5088908;28;19966;-74
2022/12/05 14:42:50;;;;;;;;;;;19.30;90.00;;;;;;5077626;28;20377;-75
2022/12/05 14:45:37;;;;;;;;;;;19.30;90.30;;;;;;5083284;28;19920;-74
2022/12/05 14:48:05;;;;;;;;;;;19.20;90.60;;;;;;5067142;28;19912;-74
2022/12/05 14:50:33;;;;;;;;;;;19.20;90.30;;;;;;5087891;28;20027;-75
2022/12/05 14:53:15;;;;;;;;;;;19.20;90.30;;;;;;5088878;28;19934;-75
2022/12/05 14:55:42;;;;;;;;;;;19.20;90.80;;;;;;5093231;28;19908;-75
2022/12/05 14:58:21;;;;;;;;;;;19.20;90.40;;;;;;5063693;28;19908;-75
2022/12/05 15:00:57;;;;;;;;;;;19.20;91.00;;;;;;5074166;28;19912;-74